sensor_id;sensor_type;location;lat;lon;timestamp;P1;durP1;ratioP1;P2;durP2;ratioP2
21519;SDS011;10921;53.614;9.882;2022-07-30T00:01:12;14.52;;;8.68;;
21519;SDS011;10921;53.614;9.882;2022-07-30T00:03:39;14.23;;;8.38;;
21519;SDS011;10921;53.614;9.882;2022-07-30T00:06:05;11.60;;;8.30;;
21519;SDS011;10921;53.614;9.882;2022-07-30T00:08:32;10.45;;;8.43;;
21519;SDS011;10921;53.614;9.882;2022-07-30T00:10:59;12.15;;;8.65;;
21519;SDS011;10921;53.614;9.882;2022-07-30T00:13:25;14.60;;;8.48;;
21519;SDS011;10921;53.614;9.882;2022-07-30T00:15:52;11.27;;;8.77;;
21519;SDS011;10921;53.614;9.882;2022-07-30T00:18:19;13.90;;;9.38;;
21519;SDS011;10921;53.614;9.882;2022-07-30T00:20:47;12.45;;;8.63;;
21519;SDS011;10921;53.614;9.882;2022-07-30T00:23:14;14.23;;;8.73;;
21519;SDS011;10921;53.614;9.882;2022-07-30T00:25:40;11.32;;;8.32;;
21519;SDS011;10921;53.614;9.882;2022-07-30T00:28:07;14.27;;;9.02;;
21519;SDS011;10921;53.614;9.882;2022-07-30T00:30:33;12.60;;;8.93;;
21519;SDS011;10921;53.614;9.882;2022-07-30T00:33:00;11.88;;;8.15;;
21519;SDS011;10921;53.614;9.882;2022-07-30T00:35:27;10.20;;;8.88;;
21519;SDS011;10921;53.614;9.882;2022-07-30T00:37:54;13.38;;;9.32;;
21519;SDS011;10921;53.614;9.882;2022-07-30T00:40:20;12.80;;;9.02;;
21519;SDS011;10921;53.614;9.882;2022-07-30T00:42:47;15.25;;;8.98;;
21519;SDS011;10921;53.614;9.882;2022-07-30T00:45:14;9.85;;;8.85;;
21519;SDS011;10921;53.614;9.882;2022-07-30T00:47:42;11.90;;;9.38;;
21519;SDS011;10921;53.614;9.882;2022-07-30T00:50:10;11.65;;;9.27;;
21519;SDS011;10921;53.614;9.882;2022-07-30T00:52:38;13.80;;;9.03;;
21519;SDS011;10921;53.614;9.882;2022-07-30T00:55:07;13.13;;;9.25;;
21519;SDS011;10921;53.614;9.882;2022-07-30T00:57:35;10.18;;;9.18;;
21519;SDS011;10921;53.614;9.882;2022-07-30T01:00:06;11.25;;;9.35;;
21519;SDS011;10921;53.614;9.882;2022-07-30T01:05:01;11.25;;;9.52;;
21519;SDS011;10921;53.614;9.882;2022-07-30T01:07:27;12.18;;;9.35;;
21519;SDS011;10921;53.614;9.882;2022-07-30T01:09:54;15.65;;;8.98;;
21519;SDS011;10921;53.614;9.882;2022-07-30T01:12:22;11.55;;;8.95;;
21519;SDS011;10921;53.614;9.882;2022-07-30T01:14:51;13.23;;;9.55;;
21519;SDS011;10921;53.614;9.882;2022-07-30T01:17:20;15.48;;;9.80;;
21519;SDS011;10921;53.614;9.882;2022-07-30T01:19:47;10.25;;;9.20;;
21519;SDS011;10921;53.614;9.882;2022-07-30T01:27:32;10.35;;;9.30;;
21519;SDS011;10921;53.614;9.882;2022-07-30T01:30:03;10.95;;;9.70;;
21519;SDS011;10921;53.614;9.882;2022-07-30T01:32:32;13.63;;;8.93;;
21519;SDS011;10921;53.614;9.882;2022-07-30T01:37:30;11.60;;;9.45;;
21519;SDS011;10921;53.614;9.882;2022-07-30T01:39:59;13.10;;;9.88;;
21519;SDS011;10921;53.614;9.882;2022-07-30T01:42:27;17.13;;;10.23;;
21519;SDS011;10921;53.614;9.882;2022-07-30T01:44:55;10.68;;;9.70;;
21519;SDS011;10921;53.614;9.882;2022-07-30T01:47:23;11.35;;;9.13;;
21519;SDS011;10921;53.614;9.882;2022-07-30T01:49:51;14.57;;;9.70;;
21519;SDS011;10921;53.614;9.882;2022-07-30T01:52:19;15.25;;;9.88;;
21519;SDS011;10921;53.614;9.882;2022-07-30T01:54:49;12.07;;;8.68;;
21519;SDS011;10921;53.614;9.882;2022-07-30T01:57:18;13.65;;;9.20;;
21519;SDS011;10921;53.614;9.882;2022-07-30T01:59:47;11.25;;;8.93;;
21519;SDS011;10921;53.614;9.882;2022-07-30T02:02:17;11.07;;;9.15;;
21519;SDS011;10921;53.614;9.882;2022-07-30T02:04:43;10.90;;;9.30;;
21519;SDS011;10921;53.614;9.882;2022-07-30T02:07:15;13.88;;;9.63;;
21519;SDS011;10921;53.614;9.882;2022-07-30T02:09:52;16.00;;;9.68;;
21519;SDS011;10921;53.614;9.882;2022-07-30T02:12:23;11.57;;;9.45;;
21519;SDS011;10921;53.614;9.882;2022-07-30T02:14:55;12.85;;;9.10;;
21519;SDS011;10921;53.614;9.882;2022-07-30T02:17:34;11.98;;;9.45;;
21519;SDS011;10921;53.614;9.882;2022-07-30T02:20:09;11.23;;;9.00;;
21519;SDS011;10921;53.614;9.882;2022-07-30T02:22:40;12.52;;;9.77;;
21519;SDS011;10921;53.614;9.882;2022-07-30T02:25:10;15.77;;;9.43;;
21519;SDS011;10921;53.614;9.882;2022-07-30T02:30:08;10.98;;;9.20;;
21519;SDS011;10921;53.614;9.882;2022-07-30T02:32:36;13.55;;;8.90;;
21519;SDS011;10921;53.614;9.882;2022-07-30T02:35:23;10.65;;;8.82;;
21519;SDS011;10921;53.614;9.882;2022-07-30T02:37:52;11.35;;;8.65;;
21519;SDS011;10921;53.614;9.882;2022-07-30T02:40:20;11.93;;;9.80;;
21519;SDS011;10921;53.614;9.882;2022-07-30T02:42:49;14.63;;;9.07;;
21519;SDS011;10921;53.614;9.882;2022-07-30T02:45:18;12.05;;;9.18;;
21519;SDS011;10921;53.614;9.882;2022-07-30T02:47:46;22.20;;;9.80;;
21519;SDS011;10921;53.614;9.882;2022-07-30T02:50:16;11.52;;;9.70;;
21519;SDS011;10921;53.614;9.882;2022-07-30T02:52:45;13.65;;;9.10;;
21519;SDS011;10921;53.614;9.882;2022-07-30T02:55:12;12.93;;;9.25;;
21519;SDS011;10921;53.614;9.882;2022-07-30T02:57:42;13.10;;;9.15;;
21519;SDS011;10921;53.614;9.882;2022-07-30T03:00:11;11.02;;;9.10;;
21519;SDS011;10921;53.614;9.882;2022-07-30T03:02:38;13.70;;;9.63;;
21519;SDS011;10921;53.614;9.882;2022-07-30T03:05:08;9.75;;;8.80;;
21519;SDS011;10921;53.614;9.882;2022-07-30T03:07:36;12.88;;;9.05;;
21519;SDS011;10921;53.614;9.882;2022-07-30T03:10:05;11.07;;;9.77;;
21519;SDS011;10921;53.614;9.882;2022-07-30T03:12:33;12.38;;;9.40;;
21519;SDS011;10921;53.614;9.882;2022-07-30T03:15:02;10.30;;;8.52;;
21519;SDS011;10921;53.614;9.882;2022-07-30T03:17:30;12.57;;;9.15;;
21519;SDS011;10921;53.614;9.882;2022-07-30T03:20:02;12.77;;;9.05;;
21519;SDS011;10921;53.614;9.882;2022-07-30T03:22:34;12.32;;;9.75;;
21519;SDS011;10921;53.614;9.882;2022-07-30T03:25:05;16.35;;;9.68;;
21519;SDS011;10921;53.614;9.882;2022-07-30T03:27:34;10.95;;;9.30;;
21519;SDS011;10921;53.614;9.882;2022-07-30T03:30:03;11.25;;;9.35;;
21519;SDS011;10921;53.614;9.882;2022-07-30T03:32:31;12.23;;;9.82;;
21519;SDS011;10921;53.614;9.882;2022-07-30T03:34:59;15.55;;;10.57;;
21519;SDS011;10921;53.614;9.882;2022-07-30T03:37:31;11.00;;;9.85;;
21519;SDS011;10921;53.614;9.882;2022-07-30T03:40:00;12.50;;;10.07;;
21519;SDS011;10921;53.614;9.882;2022-07-30T03:42:27;12.30;;;10.10;;
21519;SDS011;10921;53.614;9.882;2022-07-30T03:44:54;14.50;;;11.98;;
21519;SDS011;10921;53.614;9.882;2022-07-30T03:47:22;17.85;;;13.60;;
21519;SDS011;10921;53.614;9.882;2022-07-30T03:49:49;18.70;;;13.05;;
21519;SDS011;10921;53.614;9.882;2022-07-30T03:52:18;18.95;;;13.43;;
21519;SDS011;10921;53.614;9.882;2022-07-30T03:54:45;17.42;;;13.02;;
21519;SDS011;10921;53.614;9.882;2022-07-30T03:57:12;19.10;;;13.45;;
21519;SDS011;10921;53.614;9.882;2022-07-30T03:59:45;20.23;;;13.55;;
21519;SDS011;10921;53.614;9.882;2022-07-30T04:02:16;13.60;;;12.02;;
21519;SDS011;10921;53.614;9.882;2022-07-30T04:04:43;20.08;;;12.50;;
21519;SDS011;10921;53.614;9.882;2022-07-30T04:07:10;16.17;;;12.50;;
21519;SDS011;10921;53.614;9.882;2022-07-30T04:09:36;15.55;;;11.55;;
21519;SDS011;10921;53.614;9.882;2022-07-30T04:12:03;16.63;;;10.95;;
21519;SDS011;10921;53.614;9.882;2022-07-30T04:14:39;15.80;;;11.00;;
21519;SDS011;10921;53.614;9.882;2022-07-30T04:17:17;15.38;;;10.93;;
21519;SDS011;10921;53.614;9.882;2022-07-30T04:19:52;14.18;;;10.38;;
21519;SDS011;10921;53.614;9.882;2022-07-30T04:22:29;15.63;;;10.93;;
21519;SDS011;10921;53.614;9.882;2022-07-30T04:24:59;14.23;;;10.50;;
21519;SDS011;10921;53.614;9.882;2022-07-30T04:27:27;13.18;;;10.48;;
21519;SDS011;10921;53.614;9.882;2022-07-30T04:29:56;14.38;;;10.02;;
21519;SDS011;10921;53.614;9.882;2022-07-30T04:32:22;15.27;;;10.25;;
21519;SDS011;10921;53.614;9.882;2022-07-30T04:34:50;12.55;;;9.93;;
21519;SDS011;10921;53.614;9.882;2022-07-30T04:37:19;14.05;;;9.65;;
21519;SDS011;10921;53.614;9.882;2022-07-30T04:39:48;13.27;;;9.48;;
21519;SDS011;10921;53.614;9.882;2022-07-30T04:42:16;14.52;;;10.25;;
21519;SDS011;10921;53.614;9.882;2022-07-30T04:44:42;12.45;;;9.63;;
21519;SDS011;10921;53.614;9.882;2022-07-30T04:47:09;12.35;;;10.20;;
21519;SDS011;10921;53.614;9.882;2022-07-30T04:49:36;13.68;;;9.38;;
21519;SDS011;10921;53.614;9.882;2022-07-30T04:52:04;10.07;;;8.95;;
21519;SDS011;10921;53.614;9.882;2022-07-30T04:54:34;10.48;;;8.93;;
21519;SDS011;10921;53.614;9.882;2022-07-30T04:57:04;10.48;;;8.60;;
21519;SDS011;10921;53.614;9.882;2022-07-30T04:59:32;11.88;;;9.25;;
21519;SDS011;10921;53.614;9.882;2022-07-30T05:02:02;9.25;;;8.43;;
21519;SDS011;10921;53.614;9.882;2022-07-30T05:04:31;11.68;;;8.88;;
21519;SDS011;10921;53.614;9.882;2022-07-30T05:06:59;12.32;;;8.98;;
21519;SDS011;10921;53.614;9.882;2022-07-30T05:09:30;9.65;;;8.75;;
21519;SDS011;10921;53.614;9.882;2022-07-30T05:11:56;10.63;;;9.00;;
21519;SDS011;10921;53.614;9.882;2022-07-30T05:14:24;11.77;;;8.85;;
21519;SDS011;10921;53.614;9.882;2022-07-30T05:16:52;14.10;;;9.07;;
21519;SDS011;10921;53.614;9.882;2022-07-30T05:19:20;11.10;;;8.75;;
21519;SDS011;10921;53.614;9.882;2022-07-30T05:21:46;15.35;;;8.63;;
21519;SDS011;10921;53.614;9.882;2022-07-30T05:24:13;9.35;;;8.32;;
21519;SDS011;10921;53.614;9.882;2022-07-30T05:26:40;10.43;;;8.38;;
21519;SDS011;10921;53.614;9.882;2022-07-30T05:29:06;12.73;;;8.75;;
21519;SDS011;10921;53.614;9.882;2022-07-30T05:31:34;9.50;;;8.32;;
21519;SDS011;10921;53.614;9.882;2022-07-30T05:34:03;15.27;;;8.80;;
21519;SDS011;10921;53.614;9.882;2022-07-30T05:36:30;11.02;;;8.80;;
21519;SDS011;10921;53.614;9.882;2022-07-30T05:38:56;12.65;;;8.50;;
21519;SDS011;10921;53.614;9.882;2022-07-30T05:41:23;8.95;;;8.05;;
21519;SDS011;10921;53.614;9.882;2022-07-30T05:43:58;11.63;;;8.32;;
21519;SDS011;10921;53.614;9.882;2022-07-30T05:46:25;10.68;;;7.97;;
21519;SDS011;10921;53.614;9.882;2022-07-30T05:48:52;10.32;;;8.25;;
21519;SDS011;10921;53.614;9.882;2022-07-30T05:51:19;10.25;;;8.70;;
21519;SDS011;10921;53.614;9.882;2022-07-30T05:53:47;12.55;;;8.77;;
21519;SDS011;10921;53.614;9.882;2022-07-30T05:56:13;13.38;;;7.75;;
21519;SDS011;10921;53.614;9.882;2022-07-30T05:58:40;9.63;;;8.13;;
21519;SDS011;10921;53.614;9.882;2022-07-30T06:01:06;9.73;;;7.95;;
21519;SDS011;10921;53.614;9.882;2022-07-30T06:03:33;9.80;;;8.13;;
21519;SDS011;10921;53.614;9.882;2022-07-30T06:06:03;13.93;;;8.57;;
21519;SDS011;10921;53.614;9.882;2022-07-30T06:08:30;10.85;;;8.10;;
21519;SDS011;10921;53.614;9.882;2022-07-30T06:10:57;8.38;;;7.55;;
21519;SDS011;10921;53.614;9.882;2022-07-30T06:13:23;11.00;;;8.23;;
21519;SDS011;10921;53.614;9.882;2022-07-30T06:15:50;9.68;;;8.20;;
21519;SDS011;10921;53.614;9.882;2022-07-30T06:18:17;12.27;;;7.95;;
21519;SDS011;10921;53.614;9.882;2022-07-30T06:20:48;12.75;;;7.95;;
21519;SDS011;10921;53.614;9.882;2022-07-30T06:23:17;9.25;;;8.18;;
21519;SDS011;10921;53.614;9.882;2022-07-30T06:25:43;11.57;;;8.95;;
21519;SDS011;10921;53.614;9.882;2022-07-30T06:28:10;11.82;;;8.27;;
21519;SDS011;10921;53.614;9.882;2022-07-30T06:30:56;13.48;;;8.73;;
21519;SDS011;10921;53.614;9.882;2022-07-30T06:33:23;9.00;;;7.70;;
21519;SDS011;10921;53.614;9.882;2022-07-30T06:35:49;8.60;;;7.90;;
21519;SDS011;10921;53.614;9.882;2022-07-30T06:38:15;10.32;;;8.15;;
21519;SDS011;10921;53.614;9.882;2022-07-30T06:40:42;10.25;;;8.30;;
21519;SDS011;10921;53.614;9.882;2022-07-30T06:43:08;10.60;;;8.52;;
21519;SDS011;10921;53.614;9.882;2022-07-30T06:45:35;9.10;;;8.15;;
21519;SDS011;10921;53.614;9.882;2022-07-30T06:48:02;10.10;;;9.13;;
21519;SDS011;10921;53.614;9.882;2022-07-30T06:50:28;14.10;;;9.85;;
21519;SDS011;10921;53.614;9.882;2022-07-30T06:52:55;12.88;;;9.90;;
21519;SDS011;10921;53.614;9.882;2022-07-30T06:55:21;10.77;;;9.70;;
21519;SDS011;10921;53.614;9.882;2022-07-30T06:57:48;15.27;;;10.30;;
21519;SDS011;10921;53.614;9.882;2022-07-30T07:00:14;10.60;;;9.70;;
21519;SDS011;10921;53.614;9.882;2022-07-30T07:02:41;10.68;;;9.52;;
21519;SDS011;10921;53.614;9.882;2022-07-30T07:05:08;11.35;;;9.98;;
21519;SDS011;10921;53.614;9.882;2022-07-30T07:07:36;10.88;;;9.88;;
21519;SDS011;10921;53.614;9.882;2022-07-30T07:10:11;11.23;;;9.05;;
21519;SDS011;10921;53.614;9.882;2022-07-30T07:12:38;11.57;;;9.25;;
21519;SDS011;10921;53.614;9.882;2022-07-30T07:15:04;14.88;;;9.48;;
21519;SDS011;10921;53.614;9.882;2022-07-30T07:17:31;11.48;;;9.23;;
21519;SDS011;10921;53.614;9.882;2022-07-30T07:19:58;11.82;;;9.25;;
21519;SDS011;10921;53.614;9.882;2022-07-30T07:22:28;10.63;;;9.23;;
21519;SDS011;10921;53.614;9.882;2022-07-30T07:24:54;15.85;;;9.25;;
21519;SDS011;10921;53.614;9.882;2022-07-30T07:27:21;14.90;;;9.50;;
21519;SDS011;10921;53.614;9.882;2022-07-30T07:29:48;10.57;;;9.15;;
21519;SDS011;10921;53.614;9.882;2022-07-30T07:32:31;9.68;;;8.75;;
21519;SDS011;10921;53.614;9.882;2022-07-30T07:34:58;14.93;;;9.60;;
21519;SDS011;10921;53.614;9.882;2022-07-30T07:37:25;10.55;;;9.02;;
21519;SDS011;10921;53.614;9.882;2022-07-30T07:39:52;11.73;;;9.10;;
21519;SDS011;10921;53.614;9.882;2022-07-30T07:42:18;13.02;;;9.15;;
21519;SDS011;10921;53.614;9.882;2022-07-30T07:44:45;9.88;;;8.88;;
21519;SDS011;10921;53.614;9.882;2022-07-30T07:47:11;9.80;;;8.70;;
21519;SDS011;10921;53.614;9.882;2022-07-30T07:49:38;10.65;;;8.95;;
21519;SDS011;10921;53.614;9.882;2022-07-30T07:52:04;12.15;;;8.45;;
21519;SDS011;10921;53.614;9.882;2022-07-30T07:54:31;9.73;;;8.73;;
21519;SDS011;10921;53.614;9.882;2022-07-30T07:56:59;12.45;;;9.20;;
21519;SDS011;10921;53.614;9.882;2022-07-30T07:59:28;10.73;;;9.13;;
21519;SDS011;10921;53.614;9.882;2022-07-30T08:02:06;10.10;;;8.90;;
21519;SDS011;10921;53.614;9.882;2022-07-30T08:04:33;13.00;;;9.30;;
21519;SDS011;10921;53.614;9.882;2022-07-30T08:07:00;12.65;;;8.75;;
21519;SDS011;10921;53.614;9.882;2022-07-30T08:09:27;14.85;;;8.88;;
21519;SDS011;10921;53.614;9.882;2022-07-30T08:12:10;13.60;;;8.90;;
21519;SDS011;10921;53.614;9.882;2022-07-30T08:14:37;10.43;;;9.30;;
21519;SDS011;10921;53.614;9.882;2022-07-30T08:17:04;11.82;;;9.93;;
21519;SDS011;10921;53.614;9.882;2022-07-30T08:19:31;12.00;;;9.88;;
21519;SDS011;10921;53.614;9.882;2022-07-30T08:21:58;10.45;;;9.30;;
21519;SDS011;10921;53.614;9.882;2022-07-30T08:24:25;15.45;;;10.00;;
21519;SDS011;10921;53.614;9.882;2022-07-30T08:26:52;11.88;;;9.02;;
21519;SDS011;10921;53.614;9.882;2022-07-30T08:29:18;14.23;;;9.07;;
21519;SDS011;10921;53.614;9.882;2022-07-30T08:31:45;9.75;;;8.77;;
21519;SDS011;10921;53.614;9.882;2022-07-30T08:34:11;12.48;;;8.85;;
21519;SDS011;10921;53.614;9.882;2022-07-30T08:36:38;14.02;;;9.50;;
21519;SDS011;10921;53.614;9.882;2022-07-30T08:39:05;12.60;;;8.70;;
21519;SDS011;10921;53.614;9.882;2022-07-30T08:41:31;12.38;;;8.93;;
21519;SDS011;10921;53.614;9.882;2022-07-30T08:43:59;11.32;;;9.32;;
21519;SDS011;10921;53.614;9.882;2022-07-30T08:46:26;17.30;;;9.45;;
21519;SDS011;10921;53.614;9.882;2022-07-30T08:48:56;12.73;;;9.15;;
21519;SDS011;10921;53.614;9.882;2022-07-30T08:51:33;12.45;;;9.05;;
21519;SDS011;10921;53.614;9.882;2022-07-30T08:54:00;12.40;;;8.90;;
21519;SDS011;10921;53.614;9.882;2022-07-30T08:56:29;11.20;;;8.75;;
21519;SDS011;10921;53.614;9.882;2022-07-30T08:58:58;10.45;;;8.35;;
21519;SDS011;10921;53.614;9.882;2022-07-30T09:01:25;11.65;;;8.45;;
21519;SDS011;10921;53.614;9.882;2022-07-30T09:03:52;11.63;;;8.23;;
21519;SDS011;10921;53.614;9.882;2022-07-30T09:06:19;17.20;;;8.73;;
21519;SDS011;10921;53.614;9.882;2022-07-30T09:08:45;11.85;;;9.07;;
21519;SDS011;10921;53.614;9.882;2022-07-30T09:11:12;9.07;;;7.85;;
21519;SDS011;10921;53.614;9.882;2022-07-30T09:13:39;10.77;;;8.68;;
21519;SDS011;10921;53.614;9.882;2022-07-30T09:16:17;13.05;;;8.38;;
21519;SDS011;10921;53.614;9.882;2022-07-30T09:18:46;9.52;;;8.32;;
21519;SDS011;10921;53.614;9.882;2022-07-30T09:23:53;10.48;;;8.27;;
21519;SDS011;10921;53.614;9.882;2022-07-30T09:26:20;8.93;;;8.05;;
21519;SDS011;10921;53.614;9.882;2022-07-30T09:28:46;14.35;;;8.48;;
21519;SDS011;10921;53.614;9.882;2022-07-30T09:31:13;13.48;;;7.97;;
21519;SDS011;10921;53.614;9.882;2022-07-30T09:33:41;11.45;;;8.07;;
21519;SDS011;10921;53.614;9.882;2022-07-30T09:36:16;11.52;;;8.23;;
21519;SDS011;10921;53.614;9.882;2022-07-30T09:41:15;12.45;;;7.80;;
21519;SDS011;10921;53.614;9.882;2022-07-30T09:44:03;14.02;;;8.35;;
21519;SDS011;10921;53.614;9.882;2022-07-30T09:46:41;9.60;;;8.50;;
21519;SDS011;10921;53.614;9.882;2022-07-30T09:49:14;13.13;;;8.33;;
21519;SDS011;10921;53.614;9.882;2022-07-30T09:51:42;9.82;;;8.15;;
21519;SDS011;10921;53.614;9.882;2022-07-30T09:54:22;13.68;;;8.48;;
21519;SDS011;10921;53.614;9.882;2022-07-30T09:57:03;13.07;;;9.48;;
21519;SDS011;10921;53.614;9.882;2022-07-30T09:59:53;14.35;;;8.25;;
21519;SDS011;10921;53.614;9.882;2022-07-30T10:02:43;12.25;;;7.75;;
21519;SDS011;10921;53.614;9.882;2022-07-30T10:05:13;9.37;;;8.03;;
21519;SDS011;10921;53.614;9.882;2022-07-30T10:07:48;10.77;;;8.65;;
21519;SDS011;10921;53.614;9.882;2022-07-30T10:10:19;17.60;;;9.27;;
21519;SDS011;10921;53.614;9.882;2022-07-30T10:12:51;9.82;;;8.15;;
21519;SDS011;10921;53.614;9.882;2022-07-30T10:15:30;10.13;;;8.55;;
21519;SDS011;10921;53.614;9.882;2022-07-30T10:18:00;10.85;;;9.00;;
21519;SDS011;10921;53.614;9.882;2022-07-30T10:20:32;11.13;;;8.43;;
21519;SDS011;10921;53.614;9.882;2022-07-30T10:23:00;13.65;;;8.75;;
21519;SDS011;10921;53.614;9.882;2022-07-30T10:25:34;10.63;;;8.32;;
21519;SDS011;10921;53.614;9.882;2022-07-30T10:28:14;14.32;;;8.10;;
21519;SDS011;10921;53.614;9.882;2022-07-30T10:30:42;12.60;;;8.57;;
21519;SDS011;10921;53.614;9.882;2022-07-30T10:33:10;10.57;;;8.32;;
21519;SDS011;10921;53.614;9.882;2022-07-30T10:35:57;13.43;;;7.95;;
21519;SDS011;10921;53.614;9.882;2022-07-30T10:38:28;9.25;;;8.23;;
21519;SDS011;10921;53.614;9.882;2022-07-30T10:47:03;10.43;;;8.38;;
21519;SDS011;10921;53.614;9.882;2022-07-30T10:49:35;12.02;;;7.82;;
21519;SDS011;10921;53.614;9.882;2022-07-30T10:52:08;8.88;;;8.07;;
21519;SDS011;10921;53.614;9.882;2022-07-30T10:54:43;9.25;;;8.35;;
21519;SDS011;10921;53.614;9.882;2022-07-30T10:57:16;11.65;;;8.32;;
21519;SDS011;10921;53.614;9.882;2022-07-30T11:02:27;8.90;;;8.00;;
21519;SDS011;10921;53.614;9.882;2022-07-30T11:07:43;17.40;;;8.15;;
21519;SDS011;10921;53.614;9.882;2022-07-30T11:10:33;10.02;;;7.72;;
21519;SDS011;10921;53.614;9.882;2022-07-30T11:18:16;9.07;;;7.85;;
21519;SDS011;10921;53.614;9.882;2022-07-30T11:20:43;12.48;;;7.90;;
21519;SDS011;10921;53.614;9.882;2022-07-30T11:23:46;13.90;;;7.93;;
21519;SDS011;10921;53.614;9.882;2022-07-30T11:29:33;11.95;;;8.38;;
21519;SDS011;10921;53.614;9.882;2022-07-30T11:32:23;9.43;;;7.90;;
21519;SDS011;10921;53.614;9.882;2022-07-30T11:41:10;12.68;;;8.32;;
21519;SDS011;10921;53.614;9.882;2022-07-30T11:48:36;8.55;;;7.82;;
21519;SDS011;10921;53.614;9.882;2022-07-30T11:51:04;11.57;;;8.55;;
21519;SDS011;10921;53.614;9.882;2022-07-30T11:53:31;8.35;;;7.47;;
21519;SDS011;10921;53.614;9.882;2022-07-30T11:56:00;9.23;;;7.93;;
21519;SDS011;10921;53.614;9.882;2022-07-30T11:58:28;10.90;;;7.90;;
21519;SDS011;10921;53.614;9.882;2022-07-30T12:00:55;11.00;;;8.25;;
21519;SDS011;10921;53.614;9.882;2022-07-30T12:03:26;10.48;;;8.15;;
21519;SDS011;10921;53.614;9.882;2022-07-30T12:05:55;12.07;;;8.07;;
21519;SDS011;10921;53.614;9.882;2022-07-30T12:08:22;10.55;;;8.30;;
21519;SDS011;10921;53.614;9.882;2022-07-30T12:11:01;10.57;;;8.40;;
21519;SDS011;10921;53.614;9.882;2022-07-30T12:13:28;9.85;;;8.13;;
21519;SDS011;10921;53.614;9.882;2022-07-30T12:16:12;8.88;;;8.07;;
21519;SDS011;10921;53.614;9.882;2022-07-30T12:18:41;11.93;;;7.97;;
21519;SDS011;10921;53.614;9.882;2022-07-30T12:21:09;10.75;;;8.70;;
21519;SDS011;10921;53.614;9.882;2022-07-30T12:23:55;9.27;;;7.82;;
21519;SDS011;10921;53.614;9.882;2022-07-30T12:26:25;9.95;;;7.80;;
21519;SDS011;10921;53.614;9.882;2022-07-30T12:28:57;9.80;;;7.50;;
21519;SDS011;10921;53.614;9.882;2022-07-30T12:31:26;15.95;;;8.75;;
21519;SDS011;10921;53.614;9.882;2022-07-30T12:33:53;12.13;;;8.10;;
21519;SDS011;10921;53.614;9.882;2022-07-30T12:38:51;13.95;;;7.60;;
21519;SDS011;10921;53.614;9.882;2022-07-30T12:41:19;8.95;;;7.97;;
21519;SDS011;10921;53.614;9.882;2022-07-30T12:46:24;12.75;;;7.82;;
21519;SDS011;10921;53.614;9.882;2022-07-30T12:48:56;10.63;;;7.60;;
21519;SDS011;10921;53.614;9.882;2022-07-30T12:51:51;15.50;;;8.20;;
21519;SDS011;10921;53.614;9.882;2022-07-30T12:54:25;11.57;;;8.20;;
21519;SDS011;10921;53.614;9.882;2022-07-30T12:56:56;8.68;;;7.97;;
21519;SDS011;10921;53.614;9.882;2022-07-30T12:59:25;9.90;;;8.35;;
21519;SDS011;10921;53.614;9.882;2022-07-30T13:01:52;11.27;;;8.23;;
21519;SDS011;10921;53.614;9.882;2022-07-30T13:04:19;9.18;;;7.82;;
21519;SDS011;10921;53.614;9.882;2022-07-30T13:07:01;15.85;;;8.18;;
21519;SDS011;10921;53.614;9.882;2022-07-30T13:12:03;11.02;;;8.07;;
21519;SDS011;10921;53.614;9.882;2022-07-30T13:14:30;12.73;;;8.30;;
21519;SDS011;10921;53.614;9.882;2022-07-30T13:16:57;8.30;;;7.50;;
21519;SDS011;10921;53.614;9.882;2022-07-30T13:19:24;9.52;;;7.80;;
21519;SDS011;10921;53.614;9.882;2022-07-30T13:21:52;12.05;;;8.45;;
21519;SDS011;10921;53.614;9.882;2022-07-30T13:24:18;14.05;;;7.97;;
21519;SDS011;10921;53.614;9.882;2022-07-30T13:26:45;10.80;;;8.18;;
21519;SDS011;10921;53.614;9.882;2022-07-30T13:29:15;9.68;;;7.57;;
21519;SDS011;10921;53.614;9.882;2022-07-30T13:31:42;10.95;;;7.57;;
21519;SDS011;10921;53.614;9.882;2022-07-30T13:34:09;10.63;;;7.95;;
21519;SDS011;10921;53.614;9.882;2022-07-30T13:36:37;13.48;;;8.27;;
21519;SDS011;10921;53.614;9.882;2022-07-30T13:39:03;11.07;;;7.75;;
21519;SDS011;10921;53.614;9.882;2022-07-30T13:41:30;11.18;;;8.10;;
21519;SDS011;10921;53.614;9.882;2022-07-30T13:43:56;12.60;;;8.18;;
21519;SDS011;10921;53.614;9.882;2022-07-30T13:46:23;8.98;;;8.07;;
21519;SDS011;10921;53.614;9.882;2022-07-30T13:48:50;9.68;;;7.65;;
21519;SDS011;10921;53.614;9.882;2022-07-30T13:51:17;11.77;;;8.00;;
21519;SDS011;10921;53.614;9.882;2022-07-30T13:53:43;10.65;;;7.40;;
21519;SDS011;10921;53.614;9.882;2022-07-30T13:56:10;8.95;;;7.72;;
21519;SDS011;10921;53.614;9.882;2022-07-30T13:58:38;10.93;;;8.02;;
21519;SDS011;10921;53.614;9.882;2022-07-30T14:01:04;9.73;;;8.02;;
21519;SDS011;10921;53.614;9.882;2022-07-30T14:03:32;8.75;;;7.82;;
21519;SDS011;10921;53.614;9.882;2022-07-30T14:05:59;11.82;;;7.82;;
21519;SDS011;10921;53.614;9.882;2022-07-30T14:08:36;10.68;;;8.27;;
21519;SDS011;10921;53.614;9.882;2022-07-30T14:11:03;11.23;;;7.68;;
21519;SDS011;10921;53.614;9.882;2022-07-30T14:13:30;8.10;;;7.43;;
21519;SDS011;10921;53.614;9.882;2022-07-30T14:15:56;12.43;;;8.05;;
21519;SDS011;10921;53.614;9.882;2022-07-30T14:18:23;9.07;;;7.72;;
21519;SDS011;10921;53.614;9.882;2022-07-30T14:20:50;11.38;;;7.43;;
21519;SDS011;10921;53.614;9.882;2022-07-30T14:23:18;8.10;;;6.97;;
21519;SDS011;10921;53.614;9.882;2022-07-30T14:25:45;10.63;;;8.07;;
21519;SDS011;10921;53.614;9.882;2022-07-30T14:28:12;14.70;;;8.18;;
21519;SDS011;10921;53.614;9.882;2022-07-30T14:30:39;11.98;;;7.90;;
21519;SDS011;10921;53.614;9.882;2022-07-30T14:33:05;13.13;;;7.43;;
21519;SDS011;10921;53.614;9.882;2022-07-30T14:35:31;10.75;;;8.35;;
21519;SDS011;10921;53.614;9.882;2022-07-30T14:37:58;11.10;;;8.10;;
21519;SDS011;10921;53.614;9.882;2022-07-30T14:40:25;9.07;;;7.38;;
21519;SDS011;10921;53.614;9.882;2022-07-30T14:42:51;12.60;;;8.13;;
21519;SDS011;10921;53.614;9.882;2022-07-30T14:45:21;8.25;;;7.45;;
21519;SDS011;10921;53.614;9.882;2022-07-30T14:47:48;12.38;;;8.15;;
21519;SDS011;10921;53.614;9.882;2022-07-30T14:50:14;9.02;;;7.82;;
21519;SDS011;10921;53.614;9.882;2022-07-30T14:52:41;8.38;;;7.50;;
21519;SDS011;10921;53.614;9.882;2022-07-30T14:55:08;11.95;;;7.70;;
21519;SDS011;10921;53.614;9.882;2022-07-30T14:57:35;13.40;;;7.25;;
21519;SDS011;10921;53.614;9.882;2022-07-30T15:00:03;9.65;;;7.50;;
21519;SDS011;10921;53.614;9.882;2022-07-30T15:02:33;12.23;;;7.90;;
21519;SDS011;10921;53.614;9.882;2022-07-30T15:04:59;10.45;;;7.90;;
21519;SDS011;10921;53.614;9.882;2022-07-30T15:07:25;9.73;;;7.70;;
21519;SDS011;10921;53.614;9.882;2022-07-30T15:09:52;11.60;;;7.82;;
21519;SDS011;10921;53.614;9.882;2022-07-30T15:12:19;8.23;;;7.30;;
21519;SDS011;10921;53.614;9.882;2022-07-30T15:14:52;10.43;;;7.28;;
21519;SDS011;10921;53.614;9.882;2022-07-30T15:17:18;9.13;;;7.35;;
21519;SDS011;10921;53.614;9.882;2022-07-30T15:19:46;12.38;;;7.68;;
21519;SDS011;10921;53.614;9.882;2022-07-30T15:22:16;8.80;;;7.93;;
21519;SDS011;10921;53.614;9.882;2022-07-30T15:24:43;10.65;;;7.22;;
21519;SDS011;10921;53.614;9.882;2022-07-30T15:27:09;10.00;;;7.75;;
21519;SDS011;10921;53.614;9.882;2022-07-30T15:29:36;10.43;;;7.85;;
21519;SDS011;10921;53.614;9.882;2022-07-30T15:32:03;9.70;;;7.55;;
21519;SDS011;10921;53.614;9.882;2022-07-30T15:34:31;9.70;;;8.00;;
21519;SDS011;10921;53.614;9.882;2022-07-30T15:37:00;12.35;;;7.40;;
21519;SDS011;10921;53.614;9.882;2022-07-30T15:39:27;11.13;;;7.15;;
21519;SDS011;10921;53.614;9.882;2022-07-30T15:44:31;10.18;;;7.35;;
21519;SDS011;10921;53.614;9.882;2022-07-30T15:46:58;7.72;;;7.00;;